sensor_id;sensor_type;location;lat;lon;timestamp;P1;durP1;ratioP1;P2;durP2;ratioP2
11614;SDS011;5863;52.832;4.758;2023-03-31T00:00:52;31.95;;;6.05;;
11614;SDS011;5863;52.832;4.758;2023-03-31T00:03:23;27.65;;;5.68;;
11614;SDS011;5863;52.832;4.758;2023-03-31T00:05:53;29.30;;;5.30;;
11614;SDS011;5863;52.832;4.758;2023-03-31T00:08:22;26.02;;;5.13;;
11614;SDS011;5863;52.832;4.758;2023-03-31T00:10:49;35.03;;;6.13;;
11614;SDS011;5863;52.832;4.758;2023-03-31T00:13:16;33.45;;;5.85;;
11614;SDS011;5863;52.832;4.758;2023-03-31T00:15:43;28.23;;;5.80;;
11614;SDS011;5863;52.832;4.758;2023-03-31T00:18:10;32.20;;;6.22;;
11614;SDS011;5863;52.832;4.758;2023-03-31T00:20:38;23.02;;;5.03;;
11614;SDS011;5863;52.832;4.758;2023-03-31T00:23:06;23.48;;;5.82;;
11614;SDS011;5863;52.832;4.758;2023-03-31T00:25:34;27.73;;;5.20;;
11614;SDS011;5863;52.832;4.758;2023-03-31T00:28:04;30.92;;;5.57;;
11614;SDS011;5863;52.832;4.758;2023-03-31T00:30:30;25.52;;;4.80;;
11614;SDS011;5863;52.832;4.758;2023-03-31T00:32:57;26.65;;;5.38;;
11614;SDS011;5863;52.832;4.758;2023-03-31T00:35:24;31.52;;;5.82;;
11614;SDS011;5863;52.832;4.758;2023-03-31T00:37:52;23.58;;;5.15;;
11614;SDS011;5863;52.832;4.758;2023-03-31T00:40:22;31.95;;;6.20;;
11614;SDS011;5863;52.832;4.758;2023-03-31T00:42:48;31.98;;;6.07;;
11614;SDS011;5863;52.832;4.758;2023-03-31T00:48:01;29.60;;;5.07;;
11614;SDS011;5863;52.832;4.758;2023-03-31T00:50:34;24.95;;;4.45;;
11614;SDS011;5863;52.832;4.758;2023-03-31T00:53:07;22.77;;;4.75;;
11614;SDS011;5863;52.832;4.758;2023-03-31T00:55:39;28.23;;;5.55;;
11614;SDS011;5863;52.832;4.758;2023-03-31T00:58:09;29.80;;;4.82;;
11614;SDS011;5863;52.832;4.758;2023-03-31T01:00:38;25.55;;;4.95;;
11614;SDS011;5863;52.832;4.758;2023-03-31T01:03:06;30.95;;;5.22;;
11614;SDS011;5863;52.832;4.758;2023-03-31T01:05:35;26.08;;;4.63;;
11614;SDS011;5863;52.832;4.758;2023-03-31T01:08:07;23.13;;;4.38;;
11614;SDS011;5863;52.832;4.758;2023-03-31T01:10:36;26.23;;;5.05;;
11614;SDS011;5863;52.832;4.758;2023-03-31T01:13:06;23.50;;;4.43;;
11614;SDS011;5863;52.832;4.758;2023-03-31T01:15:34;30.40;;;5.15;;
11614;SDS011;5863;52.832;4.758;2023-03-31T01:18:01;24.25;;;4.45;;
11614;SDS011;5863;52.832;4.758;2023-03-31T01:20:30;30.38;;;4.53;;
11614;SDS011;5863;52.832;4.758;2023-03-31T01:26:11;27.58;;;4.55;;
11614;SDS011;5863;52.832;4.758;2023-03-31T01:29:03;24.55;;;4.10;;
11614;SDS011;5863;52.832;4.758;2023-03-31T01:31:54;20.95;;;4.70;;
11614;SDS011;5863;52.832;4.758;2023-03-31T01:38:11;16.63;;;3.78;;
11614;SDS011;5863;52.832;4.758;2023-03-31T01:41:05;18.05;;;3.80;;
11614;SDS011;5863;52.832;4.758;2023-03-31T01:43:47;17.00;;;3.67;;
11614;SDS011;5863;52.832;4.758;2023-03-31T01:46:24;23.30;;;3.97;;
11614;SDS011;5863;52.832;4.758;2023-03-31T01:48:56;21.65;;;4.03;;
11614;SDS011;5863;52.832;4.758;2023-03-31T01:51:32;18.50;;;4.22;;
11614;SDS011;5863;52.832;4.758;2023-03-31T01:54:10;30.00;;;5.43;;
11614;SDS011;5863;52.832;4.758;2023-03-31T01:56:46;22.77;;;4.53;;
11614;SDS011;5863;52.832;4.758;2023-03-31T01:59:18;21.17;;;4.10;;
11614;SDS011;5863;52.832;4.758;2023-03-31T02:01:51;21.67;;;4.25;;
11614;SDS011;5863;52.832;4.758;2023-03-31T02:04:21;17.98;;;4.32;;
11614;SDS011;5863;52.832;4.758;2023-03-31T02:06:52;16.55;;;3.95;;
11614;SDS011;5863;52.832;4.758;2023-03-31T02:09:24;19.02;;;4.07;;
11614;SDS011;5863;52.832;4.758;2023-03-31T02:11:56;15.40;;;3.72;;
11614;SDS011;5863;52.832;4.758;2023-03-31T02:14:25;23.05;;;4.40;;
11614;SDS011;5863;52.832;4.758;2023-03-31T02:16:56;13.07;;;3.97;;
11614;SDS011;5863;52.832;4.758;2023-03-31T02:19:27;14.23;;;3.25;;
11614;SDS011;5863;52.832;4.758;2023-03-31T02:21:57;9.40;;;3.10;;
11614;SDS011;5863;52.832;4.758;2023-03-31T02:24:25;10.75;;;2.90;;
11614;SDS011;5863;52.832;4.758;2023-03-31T02:26:59;9.63;;;2.53;;
11614;SDS011;5863;52.832;4.758;2023-03-31T02:29:30;9.35;;;2.85;;
11614;SDS011;5863;52.832;4.758;2023-03-31T02:31:58;8.73;;;2.50;;
11614;SDS011;5863;52.832;4.758;2023-03-31T02:34:29;9.30;;;3.00;;
11614;SDS011;5863;52.832;4.758;2023-03-31T02:36:56;8.48;;;2.70;;
11614;SDS011;5863;52.832;4.758;2023-03-31T02:39:23;8.95;;;2.92;;
11614;SDS011;5863;52.832;4.758;2023-03-31T02:41:53;7.72;;;2.50;;
11614;SDS011;5863;52.832;4.758;2023-03-31T02:44:22;5.15;;;2.22;;
11614;SDS011;5863;52.832;4.758;2023-03-31T02:46:49;8.15;;;2.22;;
11614;SDS011;5863;52.832;4.758;2023-03-31T02:49:16;7.32;;;2.25;;
11614;SDS011;5863;52.832;4.758;2023-03-31T02:51:48;4.28;;;1.95;;
11614;SDS011;5863;52.832;4.758;2023-03-31T02:54:42;4.20;;;1.77;;
11614;SDS011;5863;52.832;4.758;2023-03-31T02:57:37;5.82;;;1.75;;
11614;SDS011;5863;52.832;4.758;2023-03-31T03:00:15;3.65;;;1.63;;
11614;SDS011;5863;52.832;4.758;2023-03-31T03:02:53;4.32;;;1.73;;
11614;SDS011;5863;52.832;4.758;2023-03-31T03:05:34;4.60;;;1.52;;
11614;SDS011;5863;52.832;4.758;2023-03-31T03:08:13;5.28;;;2.00;;
11614;SDS011;5863;52.832;4.758;2023-03-31T03:10:46;4.38;;;1.70;;
11614;SDS011;5863;52.832;4.758;2023-03-31T03:13:25;4.93;;;1.80;;
11614;SDS011;5863;52.832;4.758;2023-03-31T03:15:57;6.07;;;2.70;;
11614;SDS011;5863;52.832;4.758;2023-03-31T03:18:30;5.38;;;2.22;;
11614;SDS011;5863;52.832;4.758;2023-03-31T03:20:57;7.97;;;3.40;;
11614;SDS011;5863;52.832;4.758;2023-03-31T03:23:24;9.48;;;3.13;;
11614;SDS011;5863;52.832;4.758;2023-03-31T03:25:50;4.88;;;3.63;;
11614;SDS011;5863;52.832;4.758;2023-03-31T03:28:17;9.77;;;4.05;;
11614;SDS011;5863;52.832;4.758;2023-03-31T03:30:44;9.27;;;4.07;;
11614;SDS011;5863;52.832;4.758;2023-03-31T03:33:12;8.45;;;4.70;;
11614;SDS011;5863;52.832;4.758;2023-03-31T03:35:40;8.38;;;4.57;;
11614;SDS011;5863;52.832;4.758;2023-03-31T03:38:07;9.05;;;4.30;;
11614;SDS011;5863;52.832;4.758;2023-03-31T03:40:34;8.30;;;4.88;;
11614;SDS011;5863;52.832;4.758;2023-03-31T03:43:00;11.35;;;5.57;;
11614;SDS011;5863;52.832;4.758;2023-03-31T03:45:27;10.50;;;5.55;;
11614;SDS011;5863;52.832;4.758;2023-03-31T03:47:54;11.65;;;5.85;;
11614;SDS011;5863;52.832;4.758;2023-03-31T03:50:22;12.32;;;6.78;;
11614;SDS011;5863;52.832;4.758;2023-03-31T03:52:50;10.95;;;5.85;;
11614;SDS011;5863;52.832;4.758;2023-03-31T03:55:16;10.90;;;6.28;;
11614;SDS011;5863;52.832;4.758;2023-03-31T03:57:43;15.38;;;6.80;;
11614;SDS011;5863;52.832;4.758;2023-03-31T04:00:10;14.43;;;6.32;;
11614;SDS011;5863;52.832;4.758;2023-03-31T04:02:37;13.98;;;7.03;;
11614;SDS011;5863;52.832;4.758;2023-03-31T04:05:04;14.07;;;7.18;;
11614;SDS011;5863;52.832;4.758;2023-03-31T04:07:32;12.77;;;6.90;;
11614;SDS011;5863;52.832;4.758;2023-03-31T04:09:59;14.90;;;7.45;;
11614;SDS011;5863;52.832;4.758;2023-03-31T04:12:26;13.95;;;7.45;;
11614;SDS011;5863;52.832;4.758;2023-03-31T04:14:52;13.70;;;6.90;;
11614;SDS011;5863;52.832;4.758;2023-03-31T04:17:19;13.43;;;7.20;;
11614;SDS011;5863;52.832;4.758;2023-03-31T04:19:57;18.73;;;8.32;;
11614;SDS011;5863;52.832;4.758;2023-03-31T04:22:26;14.68;;;7.03;;
11614;SDS011;5863;52.832;4.758;2023-03-31T04:24:54;17.80;;;7.40;;
11614;SDS011;5863;52.832;4.758;2023-03-31T04:27:22;16.00;;;6.85;;
11614;SDS011;5863;52.832;4.758;2023-03-31T04:29:51;16.38;;;5.93;;
11614;SDS011;5863;52.832;4.758;2023-03-31T04:32:18;15.75;;;6.38;;
11614;SDS011;5863;52.832;4.758;2023-03-31T04:34:45;14.00;;;6.85;;
11614;SDS011;5863;52.832;4.758;2023-03-31T04:37:14;15.95;;;6.55;;
11614;SDS011;5863;52.832;4.758;2023-03-31T04:39:41;10.07;;;5.95;;
11614;SDS011;5863;52.832;4.758;2023-03-31T04:42:12;11.77;;;6.22;;
11614;SDS011;5863;52.832;4.758;2023-03-31T04:44:38;8.50;;;5.45;;
11614;SDS011;5863;52.832;4.758;2023-03-31T04:47:05;13.18;;;5.60;;
11614;SDS011;5863;52.832;4.758;2023-03-31T04:49:32;12.70;;;5.75;;
11614;SDS011;5863;52.832;4.758;2023-03-31T04:51:59;10.30;;;5.57;;
11614;SDS011;5863;52.832;4.758;2023-03-31T04:54:27;12.65;;;5.68;;
11614;SDS011;5863;52.832;4.758;2023-03-31T04:56:53;9.55;;;5.60;;
11614;SDS011;5863;52.832;4.758;2023-03-31T04:59:21;8.57;;;5.72;;
11614;SDS011;5863;52.832;4.758;2023-03-31T05:01:48;10.48;;;5.93;;
11614;SDS011;5863;52.832;4.758;2023-03-31T05:04:15;12.48;;;5.65;;
11614;SDS011;5863;52.832;4.758;2023-03-31T05:06:42;8.73;;;4.80;;
11614;SDS011;5863;52.832;4.758;2023-03-31T05:09:11;8.05;;;4.70;;
11614;SDS011;5863;52.832;4.758;2023-03-31T05:11:37;9.10;;;5.05;;
11614;SDS011;5863;52.832;4.758;2023-03-31T05:14:04;9.13;;;4.80;;
11614;SDS011;5863;52.832;4.758;2023-03-31T05:16:32;11.00;;;4.60;;
11614;SDS011;5863;52.832;4.758;2023-03-31T05:18:59;7.60;;;4.53;;
11614;SDS011;5863;52.832;4.758;2023-03-31T05:21:25;10.13;;;4.80;;
11614;SDS011;5863;52.832;4.758;2023-03-31T05:23:54;7.10;;;4.43;;
11614;SDS011;5863;52.832;4.758;2023-03-31T05:26:21;8.27;;;4.40;;
11614;SDS011;5863;52.832;4.758;2023-03-31T05:28:49;9.45;;;5.20;;
11614;SDS011;5863;52.832;4.758;2023-03-31T05:31:16;9.30;;;4.70;;
11614;SDS011;5863;52.832;4.758;2023-03-31T05:33:44;9.68;;;5.40;;
11614;SDS011;5863;52.832;4.758;2023-03-31T05:36:11;7.82;;;5.00;;
11614;SDS011;5863;52.832;4.758;2023-03-31T05:38:40;7.05;;;4.60;;
11614;SDS011;5863;52.832;4.758;2023-03-31T05:41:07;7.05;;;3.85;;
11614;SDS011;5863;52.832;4.758;2023-03-31T05:43:35;6.53;;;3.58;;
11614;SDS011;5863;52.832;4.758;2023-03-31T05:46:02;5.47;;;3.60;;
11614;SDS011;5863;52.832;4.758;2023-03-31T05:48:29;7.75;;;4.03;;
11614;SDS011;5863;52.832;4.758;2023-03-31T05:50:57;8.30;;;4.65;;
11614;SDS011;5863;52.832;4.758;2023-03-31T05:53:24;6.63;;;4.05;;
11614;SDS011;5863;52.832;4.758;2023-03-31T05:55:55;7.35;;;3.85;;
11614;SDS011;5863;52.832;4.758;2023-03-31T05:58:22;6.00;;;4.00;;
11614;SDS011;5863;52.832;4.758;2023-03-31T06:00:49;6.38;;;4.85;;
11614;SDS011;5863;52.832;4.758;2023-03-31T06:03:17;6.05;;;4.35;;
11614;SDS011;5863;52.832;4.758;2023-03-31T06:05:46;6.55;;;4.65;;
11614;SDS011;5863;52.832;4.758;2023-03-31T06:08:14;7.75;;;4.30;;
11614;SDS011;5863;52.832;4.758;2023-03-31T06:10:41;7.07;;;4.47;;
11614;SDS011;5863;52.832;4.758;2023-03-31T06:13:07;8.13;;;4.65;;
11614;SDS011;5863;52.832;4.758;2023-03-31T06:15:34;10.63;;;5.40;;
11614;SDS011;5863;52.832;4.758;2023-03-31T06:18:01;11.45;;;5.13;;
11614;SDS011;5863;52.832;4.758;2023-03-31T06:20:28;10.40;;;5.13;;
11614;SDS011;5863;52.832;4.758;2023-03-31T06:22:54;10.82;;;5.97;;
11614;SDS011;5863;52.832;4.758;2023-03-31T06:25:22;10.02;;;5.57;;
11614;SDS011;5863;52.832;4.758;2023-03-31T06:27:50;10.07;;;5.50;;
11614;SDS011;5863;52.832;4.758;2023-03-31T06:30:17;9.20;;;5.60;;
11614;SDS011;5863;52.832;4.758;2023-03-31T06:32:44;11.32;;;5.63;;
11614;SDS011;5863;52.832;4.758;2023-03-31T06:35:11;8.27;;;5.25;;
11614;SDS011;5863;52.832;4.758;2023-03-31T06:37:38;6.82;;;5.60;;
11614;SDS011;5863;52.832;4.758;2023-03-31T06:40:05;8.85;;;6.07;;
11614;SDS011;5863;52.832;4.758;2023-03-31T06:42:35;10.95;;;6.80;;
11614;SDS011;5863;52.832;4.758;2023-03-31T06:45:01;10.73;;;6.70;;
11614;SDS011;5863;52.832;4.758;2023-03-31T06:47:28;9.75;;;6.38;;
11614;SDS011;5863;52.832;4.758;2023-03-31T06:49:55;10.63;;;5.95;;
11614;SDS011;5863;52.832;4.758;2023-03-31T06:52:22;11.07;;;6.80;;
11614;SDS011;5863;52.832;4.758;2023-03-31T06:54:49;8.48;;;5.63;;
11614;SDS011;5863;52.832;4.758;2023-03-31T06:57:15;12.48;;;5.63;;
11614;SDS011;5863;52.832;4.758;2023-03-31T06:59:43;12.45;;;6.55;;
11614;SDS011;5863;52.832;4.758;2023-03-31T07:02:10;9.55;;;6.18;;
11614;SDS011;5863;52.832;4.758;2023-03-31T07:04:38;10.90;;;5.28;;
11614;SDS011;5863;52.832;4.758;2023-03-31T07:07:04;9.13;;;5.15;;
11614;SDS011;5863;52.832;4.758;2023-03-31T07:09:31;9.48;;;5.13;;
11614;SDS011;5863;52.832;4.758;2023-03-31T07:11:58;9.65;;;4.93;;
11614;SDS011;5863;52.832;4.758;2023-03-31T07:14:24;8.35;;;5.40;;
11614;SDS011;5863;52.832;4.758;2023-03-31T07:16:52;9.05;;;5.22;;
11614;SDS011;5863;52.832;4.758;2023-03-31T07:19:19;7.20;;;4.60;;
11614;SDS011;5863;52.832;4.758;2023-03-31T07:21:46;6.90;;;4.78;;
11614;SDS011;5863;52.832;4.758;2023-03-31T07:24:13;8.05;;;4.07;;
11614;SDS011;5863;52.832;4.758;2023-03-31T07:26:40;7.13;;;4.35;;
11614;SDS011;5863;52.832;4.758;2023-03-31T07:29:07;10.98;;;4.38;;
11614;SDS011;5863;52.832;4.758;2023-03-31T07:31:34;7.35;;;4.07;;
11614;SDS011;5863;52.832;4.758;2023-03-31T07:34:02;9.57;;;4.32;;
11614;SDS011;5863;52.832;4.758;2023-03-31T07:36:29;10.10;;;4.45;;
11614;SDS011;5863;52.832;4.758;2023-03-31T07:38:56;6.78;;;3.97;;
11614;SDS011;5863;52.832;4.758;2023-03-31T07:41:23;8.43;;;3.78;;
11614;SDS011;5863;52.832;4.758;2023-03-31T07:43:50;6.55;;;3.35;;
11614;SDS011;5863;52.832;4.758;2023-03-31T07:46:18;7.30;;;3.90;;
11614;SDS011;5863;52.832;4.758;2023-03-31T07:48:46;3.75;;;3.00;;
11614;SDS011;5863;52.832;4.758;2023-03-31T07:51:15;6.28;;;3.42;;
11614;SDS011;5863;52.832;4.758;2023-03-31T07:53:43;4.95;;;3.50;;
11614;SDS011;5863;52.832;4.758;2023-03-31T07:56:10;6.82;;;3.13;;
11614;SDS011;5863;52.832;4.758;2023-03-31T07:58:37;9.38;;;3.33;;
11614;SDS011;5863;52.832;4.758;2023-03-31T08:01:04;7.82;;;3.33;;
11614;SDS011;5863;52.832;4.758;2023-03-31T08:03:31;10.95;;;3.63;;
11614;SDS011;5863;52.832;4.758;2023-03-31T08:05:58;8.13;;;3.20;;
11614;SDS011;5863;52.832;4.758;2023-03-31T08:08:26;7.50;;;3.40;;
11614;SDS011;5863;52.832;4.758;2023-03-31T08:10:53;6.90;;;3.42;;
11614;SDS011;5863;52.832;4.758;2023-03-31T08:13:20;5.88;;;2.97;;
11614;SDS011;5863;52.832;4.758;2023-03-31T08:15:47;7.63;;;3.47;;
11614;SDS011;5863;52.832;4.758;2023-03-31T08:18:13;5.97;;;3.17;;
11614;SDS011;5863;52.832;4.758;2023-03-31T08:20:40;6.18;;;2.88;;
11614;SDS011;5863;52.832;4.758;2023-03-31T08:23:07;11.75;;;3.28;;
11614;SDS011;5863;52.832;4.758;2023-03-31T08:25:36;10.20;;;2.97;;
11614;SDS011;5863;52.832;4.758;2023-03-31T08:28:06;7.38;;;2.88;;
11614;SDS011;5863;52.832;4.758;2023-03-31T08:30:35;9.43;;;3.38;;
11614;SDS011;5863;52.832;4.758;2023-03-31T08:33:02;9.02;;;3.63;;
11614;SDS011;5863;52.832;4.758;2023-03-31T08:35:29;8.95;;;3.30;;
11614;SDS011;5863;52.832;4.758;2023-03-31T08:37:55;12.15;;;3.42;;
11614;SDS011;5863;52.832;4.758;2023-03-31T08:40:23;8.25;;;3.45;;
11614;SDS011;5863;52.832;4.758;2023-03-31T08:42:54;11.18;;;3.53;;
11614;SDS011;5863;52.832;4.758;2023-03-31T08:45:24;7.78;;;3.05;;
11614;SDS011;5863;52.832;4.758;2023-03-31T08:47:57;12.55;;;3.03;;
11614;SDS011;5863;52.832;4.758;2023-03-31T08:50:28;7.63;;;3.15;;
11614;SDS011;5863;52.832;4.758;2023-03-31T08:53:01;10.68;;;3.00;;
11614;SDS011;5863;52.832;4.758;2023-03-31T08:55:33;7.60;;;2.83;;
11614;SDS011;5863;52.832;4.758;2023-03-31T08:58:06;10.45;;;3.22;;
11614;SDS011;5863;52.832;4.758;2023-03-31T09:00:39;9.68;;;2.95;;
11614;SDS011;5863;52.832;4.758;2023-03-31T09:03:13;13.40;;;3.33;;
11614;SDS011;5863;52.832;4.758;2023-03-31T09:05:48;11.88;;;3.00;;
11614;SDS011;5863;52.832;4.758;2023-03-31T09:08:24;6.18;;;2.40;;
11614;SDS011;5863;52.832;4.758;2023-03-31T09:10:59;14.65;;;3.15;;
11614;SDS011;5863;52.832;4.758;2023-03-31T09:16:42;7.88;;;2.63;;
11614;SDS011;5863;52.832;4.758;2023-03-31T09:19:15;15.45;;;3.25;;
11614;SDS011;5863;52.832;4.758;2023-03-31T09:21:46;12.60;;;2.90;;
11614;SDS011;5863;52.832;4.758;2023-03-31T09:24:16;10.50;;;2.80;;
11614;SDS011;5863;52.832;4.758;2023-03-31T09:26:46;15.40;;;3.05;;
11614;SDS011;5863;52.832;4.758;2023-03-31T09:29:18;8.52;;;2.80;;
11614;SDS011;5863;52.832;4.758;2023-03-31T09:31:52;12.32;;;2.72;;
11614;SDS011;5863;52.832;4.758;2023-03-31T09:34:22;10.18;;;3.08;;
11614;SDS011;5863;52.832;4.758;2023-03-31T09:36:50;8.05;;;2.80;;
11614;SDS011;5863;52.832;4.758;2023-03-31T09:39:17;11.68;;;2.88;;
11614;SDS011;5863;52.832;4.758;2023-03-31T09:41:45;9.10;;;2.88;;
11614;SDS011;5863;52.832;4.758;2023-03-31T09:44:24;11.02;;;2.92;;
11614;SDS011;5863;52.832;4.758;2023-03-31T09:46:54;10.82;;;2.60;;
11614;SDS011;5863;52.832;4.758;2023-03-31T09:49:24;15.70;;;3.03;;
11614;SDS011;5863;52.832;4.758;2023-03-31T09:51:58;11.50;;;2.90;;
11614;SDS011;5863;52.832;4.758;2023-03-31T09:54:27;9.13;;;2.90;;
11614;SDS011;5863;52.832;4.758;2023-03-31T09:57:01;9.15;;;2.67;;
11614;SDS011;5863;52.832;4.758;2023-03-31T09:59:29;12.68;;;2.67;;
11614;SDS011;5863;52.832;4.758;2023-03-31T10:02:00;12.05;;;2.38;;
11614;SDS011;5863;52.832;4.758;2023-03-31T10:04:31;8.32;;;2.35;;
11614;SDS011;5863;52.832;4.758;2023-03-31T10:06:59;6.30;;;2.70;;
11614;SDS011;5863;52.832;4.758;2023-03-31T10:09:29;6.28;;;2.22;;
11614;SDS011;5863;52.832;4.758;2023-03-31T10:11:58;7.35;;;2.55;;
11614;SDS011;5863;52.832;4.758;2023-03-31T10:14:34;6.85;;;2.47;;
11614;SDS011;5863;52.832;4.758;2023-03-31T10:17:11;7.55;;;2.20;;
11614;SDS011;5863;52.832;4.758;2023-03-31T10:19:45;7.05;;;2.15;;
11614;SDS011;5863;52.832;4.758;2023-03-31T10:22:14;8.52;;;2.50;;
11614;SDS011;5863;52.832;4.758;2023-03-31T10:24:51;8.45;;;2.60;;
11614;SDS011;5863;52.832;4.758;2023-03-31T10:27:20;7.57;;;2.50;;
11614;SDS011;5863;52.832;4.758;2023-03-31T10:29:50;9.98;;;2.70;;
11614;SDS011;5863;52.832;4.758;2023-03-31T10:32:21;9.40;;;3.08;;
11614;SDS011;5863;52.832;4.758;2023-03-31T10:34:51;11.30;;;3.25;;
11614;SDS011;5863;52.832;4.758;2023-03-31T10:37:18;12.13;;;3.20;;
11614;SDS011;5863;52.832;4.758;2023-03-31T10:39:55;12.07;;;3.05;;
11614;SDS011;5863;52.832;4.758;2023-03-31T10:42:22;8.18;;;2.25;;
11614;SDS011;5863;52.832;4.758;2023-03-31T10:44:51;11.40;;;2.83;;
11614;SDS011;5863;52.832;4.758;2023-03-31T10:47:37;8.32;;;2.50;;
11614;SDS011;5863;52.832;4.758;2023-03-31T10:50:11;10.25;;;3.00;;
11614;SDS011;5863;52.832;4.758;2023-03-31T10:52:42;7.10;;;2.30;;
11614;SDS011;5863;52.832;4.758;2023-03-31T10:55:11;10.43;;;2.90;;
11614;SDS011;5863;52.832;4.758;2023-03-31T10:57:40;8.52;;;2.50;;
11614;SDS011;5863;52.832;4.758;2023-03-31T11:00:15;10.23;;;2.42;;
11614;SDS011;5863;52.832;4.758;2023-03-31T11:02:58;8.27;;;2.53;;
11614;SDS011;5863;52.832;4.758;2023-03-31T11:05:40;9.38;;;2.50;;
11614;SDS011;5863;52.832;4.758;2023-03-31T11:08:15;12.85;;;2.88;;
11614;SDS011;5863;52.832;4.758;2023-03-31T11:10:55;12.00;;;3.00;;
11614;SDS011;5863;52.832;4.758;2023-03-31T11:13:32;9.63;;;2.95;;
11614;SDS011;5863;52.832;4.758;2023-03-31T11:16:04;9.82;;;2.80;;
11614;SDS011;5863;52.832;4.758;2023-03-31T11:18:44;10.60;;;2.88;;
11614;SDS011;5863;52.832;4.758;2023-03-31T11:21:19;7.13;;;2.70;;
11614;SDS011;5863;52.832;4.758;2023-03-31T11:23:55;7.35;;;2.15;;
11614;SDS011;5863;52.832;4.758;2023-03-31T11:26:28;7.28;;;2.17;;
11614;SDS011;5863;52.832;4.758;2023-03-31T11:29:05;8.57;;;2.40;;
11614;SDS011;5863;52.832;4.758;2023-03-31T11:31:48;6.05;;;2.28;;
11614;SDS011;5863;52.832;4.758;2023-03-31T11:34:27;6.25;;;2.00;;
11614;SDS011;5863;52.832;4.758;2023-03-31T11:37:11;5.75;;;2.35;;
11614;SDS011;5863;52.832;4.758;2023-03-31T11:39:55;6.70;;;1.92;;
11614;SDS011;5863;52.832;4.758;2023-03-31T11:42:32;6.43;;;2.30;;
11614;SDS011;5863;52.832;4.758;2023-03-31T11:45:04;4.93;;;2.15;;
11614;SDS011;5863;52.832;4.758;2023-03-31T11:47:39;7.20;;;2.38;;
11614;SDS011;5863;52.832;4.758;2023-03-31T11:50:12;8.93;;;2.72;;
11614;SDS011;5863;52.832;4.758;2023-03-31T11:52:43;6.40;;;2.40;;
11614;SDS011;5863;52.832;4.758;2023-03-31T11:55:15;4.90;;;1.67;;
11614;SDS011;5863;52.832;4.758;2023-03-31T11:57:47;8.40;;;1.73;;
11614;SDS011;5863;52.832;4.758;2023-03-31T12:00:22;5.07;;;1.58;;
11614;SDS011;5863;52.832;4.758;2023-03-31T12:02:53;7.63;;;1.80;;
11614;SDS011;5863;52.832;4.758;2023-03-31T12:05:26;8.25;;;1.90;;
11614;SDS011;5863;52.832;4.758;2023-03-31T12:07:57;6.97;;;2.08;;
11614;SDS011;5863;52.832;4.758;2023-03-31T12:10:30;8.13;;;2.05;;
11614;SDS011;5863;52.832;4.758;2023-03-31T12:13:02;7.57;;;2.13;;
11614;SDS011;5863;52.832;4.758;2023-03-31T12:15:36;8.07;;;2.22;;
11614;SDS011;5863;52.832;4.758;2023-03-31T12:18:08;7.15;;;2.33;;
11614;SDS011;5863;52.832;4.758;2023-03-31T12:20:40;9.57;;;2.30;;
11614;SDS011;5863;52.832;4.758;2023-03-31T12:23:10;7.95;;;2.15;;
11614;SDS011;5863;52.832;4.758;2023-03-31T12:25:41;9.85;;;2.28;;
11614;SDS011;5863;52.832;4.758;2023-03-31T12:28:13;5.93;;;1.65;;
11614;SDS011;5863;52.832;4.758;2023-03-31T12:30:41;8.60;;;2.10;;
11614;SDS011;5863;52.832;4.758;2023-03-31T12:33:12;7.15;;;2.38;;
11614;SDS011;5863;52.832;4.758;2023-03-31T12:35:46;9.65;;;2.42;;
11614;SDS011;5863;52.832;4.758;2023-03-31T12:38:25;8.98;;;1.88;;
11614;SDS011;5863;52.832;4.758;2023-03-31T12:41:02;4.93;;;1.80;;
11614;SDS011;5863;52.832;4.758;2023-03-31T12:43:41;4.68;;;1.77;;
11614;SDS011;5863;52.832;4.758;2023-03-31T12:46:34;5.40;;;2.08;;
11614;SDS011;5863;52.832;4.758;2023-03-31T12:49:15;6.53;;;1.98;;
11614;SDS011;5863;52.832;4.758;2023-03-31T12:51:57;4.97;;;1.98;;
11614;SDS011;5863;52.832;4.758;2023-03-31T12:54:31;8.45;;;2.25;;
11614;SDS011;5863;52.832;4.758;2023-03-31T12:57:12;7.57;;;2.38;;
11614;SDS011;5863;52.832;4.758;2023-03-31T12:59:41;9.85;;;2.22;;
11614;SDS011;5863;52.832;4.758;2023-03-31T13:02:22;7.53;;;2.35;;
11614;SDS011;5863;52.832;4.758;2023-03-31T13:04:51;7.97;;;2.50;;
11614;SDS011;5863;52.832;4.758;2023-03-31T13:07:35;7.90;;;2.30;;
11614;SDS011;5863;52.832;4.758;2023-03-31T13:10:24;6.65;;;2.17;;
11614;SDS011;5863;52.832;4.758;2023-03-31T13:12:59;8.48;;;2.30;;
11614;SDS011;5863;52.832;4.758;2023-03-31T13:15:30;12.13;;;2.55;;
11614;SDS011;5863;52.832;4.758;2023-03-31T13:17:58;9.00;;;2.17;;
11614;SDS011;5863;52.832;4.758;2023-03-31T13:20:29;7.22;;;2.08;;
11614;SDS011;5863;52.832;4.758;2023-03-31T13:23:02;6.80;;;2.15;;
11614;SDS011;5863;52.832;4.758;2023-03-31T13:28:17;5.85;;;1.60;;
11614;SDS011;5863;52.832;4.758;2023-03-31T13:30:57;6.18;;;1.77;;
11614;SDS011;5863;52.832;4.758;2023-03-31T13:33:30;5.40;;;1.63;;
11614;SDS011;5863;52.832;4.758;2023-03-31T13:36:07;6.15;;;1.58;;
11614;SDS011;5863;52.832;4.758;2023-03-31T13:39:01;5.70;;;1.50;;
11614;SDS011;5863;52.832;4.758;2023-03-31T13:41:40;8.23;;;2.08;;
11614;SDS011;5863;52.832;4.758;2023-03-31T13:47:17;4.95;;;1.88;;
11614;SDS011;5863;52.832;4.758;2023-03-31T13:50:14;5.85;;;2.10;;
11614;SDS011;5863;52.832;4.758;2023-03-31T13:52:52;5.47;;;1.98;;
11614;SDS011;5863;52.832;4.758;2023-03-31T13:55:37;4.60;;;2.00;;
11614;SDS011;5863;52.832;4.758;2023-03-31T13:58:22;5.53;;;2.10;;
11614;SDS011;5863;52.832;4.758;2023-03-31T14:04:10;5.93;;;1.85;;
11614;SDS011;5863;52.832;4.758;2023-03-31T14:06:54;3.80;;;1.60;;
11614;SDS011;5863;52.832;4.758;2023-03-31T14:09:25;3.38;;;1.38;;
11614;SDS011;5863;52.832;4.758;2023-03-31T14:11:58;4.38;;;1.60;;
11614;SDS011;5863;52.832;4.758;2023-03-31T14:14:25;6.00;;;1.92;;
11614;SDS011;5863;52.832;4.758;2023-03-31T14:16:54;9.90;;;1.90;;
11614;SDS011;5863;52.832;4.758;2023-03-31T14:19:33;6.47;;;1.60;;
11614;SDS011;5863;52.832;4.758;2023-03-31T14:22:16;5.18;;;1.90;;
11614;SDS011;5863;52.832;4.758;2023-03-31T14:24:51;7.35;;;1.73;;
11614;SDS011;5863;52.832;4.758;2023-03-31T14:27:31;4.32;;;1.77;;
11614;SDS011;5863;52.832;4.758;2023-03-31T14:30:10;8.05;;;2.13;;
11614;SDS011;5863;52.832;4.758;2023-03-31T14:32:45;7.97;;;2.15;;
11614;SDS011;5863;52.832;4.758;2023-03-31T14:35:25;9.85;;;1.90;;
11614;SDS011;5863;52.832;4.758;2023-03-31T14:37:56;4.30;;;1.65;;
11614;SDS011;5863;52.832;4.758;2023-03-31T14:40:24;6.18;;;1.65;;
11614;SDS011;5863;52.832;4.758;2023-03-31T14:42:52;2.28;;;1.55;;
11614;SDS011;5863;52.832;4.758;2023-03-31T14:45:20;4.38;;;1.50;;
11614;SDS011;5863;52.832;4.758;2023-03-31T14:47:52;2.83;;;1.58;;
11614;SDS011;5863;52.832;4.758;2023-03-31T14:50:27;3.10;;;1.52;;
11614;SDS011;5863;52.832;4.758;2023-03-31T14:52:56;3.63;;;1.60;;
11614;SDS011;5863;52.832;4.758;2023-03-31T14:55:24;2.92;;;1.40;;
11614;SDS011;5863;52.832;4.758;2023-03-31T14:57:54;2.97;;;1.48;;
11614;SDS011;5863;52.832;4.758;2023-03-31T15:00:25;2.63;;;1.20;;
11614;SDS011;5863;52.832;4.758;2023-03-31T15:02:53;2.25;;;1.40;;
11614;SDS011;5863;52.832;4.758;2023-03-31T15:05:24;5.45;;;1.48;;
11614;SDS011;5863;52.832;4.758;2023-03-31T15:07:55;1.45;;;0.90;;
11614;SDS011;5863;52.832;4.758;2023-03-31T15:10:23;1.92;;;1.10;;
11614;SDS011;5863;52.832;4.758;2023-03-31T15:12:50;2.55;;;0.90;;
11614;SDS011;5863;52.832;4.758;2023-03-31T15:15:19;1.52;;;0.60;;
11614;SDS011;5863;52.832;4.758;2023-03-31T15:17:47;1.83;;;0.75;;
11614;SDS011;5863;52.832;4.758;2023-03-31T15:20:23;1.85;;;1.00;;
11614;SDS011;5863;52.832;4.758;2023-03-31T15:22:56;2.33;;;0.93;;
11614;SDS011;5863;52.832;4.758;2023-03-31T15:25:24;1.75;;;1.17;;
11614;SDS011;5863;52.832;4.758;2023-03-31T15:27:55;1.90;;;0.98;;
11614;SDS011;5863;52.832;4.758;2023-03-31T15:30:26;2.40;;;0.90;;
11614;SDS011;5863;52.832;4.758;2023-03-31T15:32:54;2.97;;;1.33;;
11614;SDS011;5863;52.832;4.758;2023-03-31T15:35:22;2.38;;;1.33;;
11614;SDS011;5863;52.832;4.758;2023-03-31T15:37:52;6.25;;;1.67;;
11614;SDS011;5863;52.832;4.758;2023-03-31T15:40:21;6.80;;;1.67;;